sensor_id;sensor_type;location;lat;lon;timestamp;P1;durP1;ratioP1;P2;durP2;ratioP2
2748;SDS011;1382;52.142;11.618;2023-05-10T00:02:12;7.13;;;4.20;;
2748;SDS011;1382;52.142;11.618;2023-05-10T00:04:39;6.63;;;4.07;;
2748;SDS011;1382;52.142;11.618;2023-05-10T00:07:06;4.77;;;3.83;;
2748;SDS011;1382;52.142;11.618;2023-05-10T00:09:33;4.47;;;4.07;;
2748;SDS011;1382;52.142;11.618;2023-05-10T00:12:01;4.93;;;4.17;;
2748;SDS011;1382;52.142;11.618;2023-05-10T00:14:27;4.37;;;4.00;;
2748;SDS011;1382;52.142;11.618;2023-05-10T00:16:54;6.03;;;4.03;;
2748;SDS011;1382;52.142;11.618;2023-05-10T00:19:21;5.30;;;4.03;;
2748;SDS011;1382;52.142;11.618;2023-05-10T00:21:47;7.90;;;4.60;;
2748;SDS011;1382;52.142;11.618;2023-05-10T00:24:14;5.00;;;4.40;;
2748;SDS011;1382;52.142;11.618;2023-05-10T00:26:41;4.27;;;3.87;;
2748;SDS011;1382;52.142;11.618;2023-05-10T00:29:09;6.40;;;4.10;;
2748;SDS011;1382;52.142;11.618;2023-05-10T00:31:35;4.80;;;4.20;;
2748;SDS011;1382;52.142;11.618;2023-05-10T00:34:02;4.00;;;3.47;;
2748;SDS011;1382;52.142;11.618;2023-05-10T00:36:29;5.80;;;4.17;;
2748;SDS011;1382;52.142;11.618;2023-05-10T00:38:56;4.37;;;3.97;;
2748;SDS011;1382;52.142;11.618;2023-05-10T00:41:22;10.60;;;3.93;;
2748;SDS011;1382;52.142;11.618;2023-05-10T00:43:49;6.63;;;3.90;;
2748;SDS011;1382;52.142;11.618;2023-05-10T00:46:17;4.33;;;3.90;;
2748;SDS011;1382;52.142;11.618;2023-05-10T00:48:44;5.07;;;4.20;;
2748;SDS011;1382;52.142;11.618;2023-05-10T00:51:11;4.63;;;4.23;;
2748;SDS011;1382;52.142;11.618;2023-05-10T00:53:38;4.67;;;3.80;;
2748;SDS011;1382;52.142;11.618;2023-05-10T00:56:05;5.17;;;4.37;;
2748;SDS011;1382;52.142;11.618;2023-05-10T00:58:31;5.23;;;4.73;;
2748;SDS011;1382;52.142;11.618;2023-05-10T01:00:58;5.67;;;4.20;;
2748;SDS011;1382;52.142;11.618;2023-05-10T01:03:28;7.10;;;4.20;;
2748;SDS011;1382;52.142;11.618;2023-05-10T01:05:55;4.60;;;3.93;;
2748;SDS011;1382;52.142;11.618;2023-05-10T01:08:22;4.63;;;4.00;;
2748;SDS011;1382;52.142;11.618;2023-05-10T01:10:49;26.27;;;4.63;;
2748;SDS011;1382;52.142;11.618;2023-05-10T01:13:17;4.60;;;4.10;;
2748;SDS011;1382;52.142;11.618;2023-05-10T01:15:52;8.70;;;4.63;;
2748;SDS011;1382;52.142;11.618;2023-05-10T01:18:19;4.90;;;4.20;;
2748;SDS011;1382;52.142;11.618;2023-05-10T01:20:48;8.23;;;4.70;;
2748;SDS011;1382;52.142;11.618;2023-05-10T01:23:29;4.70;;;3.80;;
2748;SDS011;1382;52.142;11.618;2023-05-10T01:26:13;3.50;;;3.20;;
2748;SDS011;1382;52.142;11.618;2023-05-10T01:29:03;4.50;;;4.10;;
2748;SDS011;1382;52.142;11.618;2023-05-10T01:34:55;4.60;;;3.73;;
2748;SDS011;1382;52.142;11.618;2023-05-10T01:37:28;5.27;;;4.70;;
2748;SDS011;1382;52.142;11.618;2023-05-10T01:40:03;6.53;;;4.63;;
2748;SDS011;1382;52.142;11.618;2023-05-10T01:42:40;6.83;;;4.77;;
2748;SDS011;1382;52.142;11.618;2023-05-10T01:45:14;14.77;;;4.30;;
2748;SDS011;1382;52.142;11.618;2023-05-10T01:47:46;4.87;;;4.03;;
2748;SDS011;1382;52.142;11.618;2023-05-10T01:50:18;4.67;;;4.23;;
2748;SDS011;1382;52.142;11.618;2023-05-10T01:52:55;5.43;;;4.10;;
2748;SDS011;1382;52.142;11.618;2023-05-10T01:55:27;5.93;;;3.97;;
2748;SDS011;1382;52.142;11.618;2023-05-10T01:57:58;4.90;;;4.40;;
2748;SDS011;1382;52.142;11.618;2023-05-10T02:00:28;4.67;;;4.13;;
2748;SDS011;1382;52.142;11.618;2023-05-10T02:02:56;4.23;;;3.80;;
2748;SDS011;1382;52.142;11.618;2023-05-10T02:05:26;7.53;;;4.60;;
2748;SDS011;1382;52.142;11.618;2023-05-10T02:07:57;6.10;;;4.53;;
2748;SDS011;1382;52.142;11.618;2023-05-10T02:10:25;4.63;;;3.80;;
2748;SDS011;1382;52.142;11.618;2023-05-10T02:12:53;4.23;;;3.83;;
2748;SDS011;1382;52.142;11.618;2023-05-10T02:15:22;7.13;;;4.80;;
2748;SDS011;1382;52.142;11.618;2023-05-10T02:17:50;4.43;;;3.93;;
2748;SDS011;1382;52.142;11.618;2023-05-10T02:20:20;7.17;;;4.60;;
2748;SDS011;1382;52.142;11.618;2023-05-10T02:22:50;18.37;;;4.20;;
2748;SDS011;1382;52.142;11.618;2023-05-10T02:25:19;6.37;;;4.60;;
2748;SDS011;1382;52.142;11.618;2023-05-10T02:27:48;4.23;;;3.87;;
2748;SDS011;1382;52.142;11.618;2023-05-10T02:30:15;5.83;;;4.50;;
2748;SDS011;1382;52.142;11.618;2023-05-10T02:32:44;4.90;;;4.43;;
2748;SDS011;1382;52.142;11.618;2023-05-10T02:35:11;6.03;;;4.60;;
2748;SDS011;1382;52.142;11.618;2023-05-10T02:37:38;5.50;;;4.00;;
2748;SDS011;1382;52.142;11.618;2023-05-10T02:40:08;5.63;;;4.60;;
2748;SDS011;1382;52.142;11.618;2023-05-10T02:42:37;6.93;;;4.80;;
2748;SDS011;1382;52.142;11.618;2023-05-10T02:45:06;5.70;;;4.77;;
2748;SDS011;1382;52.142;11.618;2023-05-10T02:47:37;6.70;;;4.30;;
2748;SDS011;1382;52.142;11.618;2023-05-10T02:50:04;5.90;;;4.07;;
2748;SDS011;1382;52.142;11.618;2023-05-10T02:52:36;4.70;;;3.90;;
2748;SDS011;1382;52.142;11.618;2023-05-10T02:55:08;7.50;;;4.80;;
2748;SDS011;1382;52.142;11.618;2023-05-10T02:57:39;8.67;;;4.80;;
2748;SDS011;1382;52.142;11.618;2023-05-10T03:00:08;7.00;;;4.17;;
2748;SDS011;1382;52.142;11.618;2023-05-10T03:02:35;5.23;;;4.50;;
2748;SDS011;1382;52.142;11.618;2023-05-10T03:05:02;5.70;;;5.10;;
2748;SDS011;1382;52.142;11.618;2023-05-10T03:07:29;4.70;;;3.90;;
2748;SDS011;1382;52.142;11.618;2023-05-10T03:09:56;5.63;;;3.67;;
2748;SDS011;1382;52.142;11.618;2023-05-10T03:12:26;5.20;;;3.70;;
2748;SDS011;1382;52.142;11.618;2023-05-10T03:15:05;5.40;;;4.47;;
2748;SDS011;1382;52.142;11.618;2023-05-10T03:17:40;5.57;;;4.03;;
2748;SDS011;1382;52.142;11.618;2023-05-10T03:20:16;4.90;;;4.10;;
2748;SDS011;1382;52.142;11.618;2023-05-10T03:22:50;8.20;;;3.90;;
2748;SDS011;1382;52.142;11.618;2023-05-10T03:25:21;4.03;;;3.50;;
2748;SDS011;1382;52.142;11.618;2023-05-10T03:27:51;6.83;;;3.93;;
2748;SDS011;1382;52.142;11.618;2023-05-10T03:30:18;4.60;;;4.20;;
2748;SDS011;1382;52.142;11.618;2023-05-10T03:32:45;4.77;;;3.90;;
2748;SDS011;1382;52.142;11.618;2023-05-10T03:35:12;4.97;;;4.43;;
2748;SDS011;1382;52.142;11.618;2023-05-10T03:37:39;5.80;;;4.00;;
2748;SDS011;1382;52.142;11.618;2023-05-10T03:40:06;5.00;;;4.60;;
2748;SDS011;1382;52.142;11.618;2023-05-10T03:42:34;5.10;;;4.43;;
2748;SDS011;1382;52.142;11.618;2023-05-10T03:45:02;4.70;;;3.93;;
2748;SDS011;1382;52.142;11.618;2023-05-10T03:47:29;4.13;;;3.73;;
2748;SDS011;1382;52.142;11.618;2023-05-10T03:49:56;4.23;;;3.90;;
2748;SDS011;1382;52.142;11.618;2023-05-10T03:52:22;5.30;;;3.43;;
2748;SDS011;1382;52.142;11.618;2023-05-10T03:54:49;9.33;;;4.10;;
2748;SDS011;1382;52.142;11.618;2023-05-10T03:57:16;4.60;;;4.20;;
2748;SDS011;1382;52.142;11.618;2023-05-10T03:59:42;4.63;;;3.43;;
2748;SDS011;1382;52.142;11.618;2023-05-10T04:02:10;5.63;;;3.93;;
2748;SDS011;1382;52.142;11.618;2023-05-10T04:04:37;3.53;;;3.23;;
2748;SDS011;1382;52.142;11.618;2023-05-10T04:07:04;3.70;;;3.30;;
2748;SDS011;1382;52.142;11.618;2023-05-10T04:09:31;4.80;;;4.30;;
2748;SDS011;1382;52.142;11.618;2023-05-10T04:11:58;4.60;;;4.13;;
2748;SDS011;1382;52.142;11.618;2023-05-10T04:14:25;5.70;;;4.70;;
2748;SDS011;1382;52.142;11.618;2023-05-10T04:16:51;4.80;;;3.73;;
2748;SDS011;1382;52.142;11.618;2023-05-10T04:19:20;9.17;;;5.13;;
2748;SDS011;1382;52.142;11.618;2023-05-10T04:21:46;7.33;;;4.10;;
2748;SDS011;1382;52.142;11.618;2023-05-10T04:24:13;7.13;;;3.50;;
2748;SDS011;1382;52.142;11.618;2023-05-10T04:26:40;6.83;;;4.23;;
2748;SDS011;1382;52.142;11.618;2023-05-10T04:29:06;4.43;;;3.90;;
2748;SDS011;1382;52.142;11.618;2023-05-10T04:31:33;7.33;;;4.67;;
2748;SDS011;1382;52.142;11.618;2023-05-10T04:34:00;5.90;;;3.90;;
2748;SDS011;1382;52.142;11.618;2023-05-10T04:36:28;4.20;;;3.50;;
2748;SDS011;1382;52.142;11.618;2023-05-10T04:38:54;5.27;;;4.20;;
2748;SDS011;1382;52.142;11.618;2023-05-10T04:41:21;4.67;;;4.23;;
2748;SDS011;1382;52.142;11.618;2023-05-10T04:43:48;5.13;;;3.30;;
2748;SDS011;1382;52.142;11.618;2023-05-10T04:46:14;6.47;;;4.57;;
2748;SDS011;1382;52.142;11.618;2023-05-10T04:48:41;6.37;;;4.57;;
2748;SDS011;1382;52.142;11.618;2023-05-10T04:51:08;5.00;;;4.33;;
2748;SDS011;1382;52.142;11.618;2023-05-10T04:53:36;7.70;;;4.00;;
2748;SDS011;1382;52.142;11.618;2023-05-10T04:56:03;6.03;;;3.73;;
2748;SDS011;1382;52.142;11.618;2023-05-10T04:58:30;6.60;;;4.13;;
2748;SDS011;1382;52.142;11.618;2023-05-10T05:00:57;5.00;;;4.50;;
2748;SDS011;1382;52.142;11.618;2023-05-10T05:03:30;3.93;;;3.63;;
2748;SDS011;1382;52.142;11.618;2023-05-10T05:05:57;6.83;;;4.67;;
2748;SDS011;1382;52.142;11.618;2023-05-10T05:08:24;5.30;;;4.00;;
2748;SDS011;1382;52.142;11.618;2023-05-10T05:10:51;8.43;;;4.07;;
2748;SDS011;1382;52.142;11.618;2023-05-10T05:13:18;6.63;;;4.27;;
2748;SDS011;1382;52.142;11.618;2023-05-10T05:15:45;6.00;;;4.37;;
2748;SDS011;1382;52.142;11.618;2023-05-10T05:18:12;5.83;;;3.67;;
2748;SDS011;1382;52.142;11.618;2023-05-10T05:20:38;5.80;;;4.40;;
2748;SDS011;1382;52.142;11.618;2023-05-10T05:23:05;7.37;;;4.53;;
2748;SDS011;1382;52.142;11.618;2023-05-10T05:25:32;5.27;;;4.13;;
2748;SDS011;1382;52.142;11.618;2023-05-10T05:28:00;7.83;;;4.37;;
2748;SDS011;1382;52.142;11.618;2023-05-10T05:30:26;6.73;;;4.00;;
2748;SDS011;1382;52.142;11.618;2023-05-10T05:32:53;3.97;;;3.57;;
2748;SDS011;1382;52.142;11.618;2023-05-10T05:35:20;4.80;;;4.07;;
2748;SDS011;1382;52.142;11.618;2023-05-10T05:37:46;7.50;;;4.77;;
2748;SDS011;1382;52.142;11.618;2023-05-10T05:40:13;6.87;;;4.10;;
2748;SDS011;1382;52.142;11.618;2023-05-10T05:42:40;8.43;;;4.13;;
2748;SDS011;1382;52.142;11.618;2023-05-10T05:45:09;4.70;;;4.00;;
2748;SDS011;1382;52.142;11.618;2023-05-10T05:47:36;5.57;;;3.67;;
2748;SDS011;1382;52.142;11.618;2023-05-10T05:50:03;6.43;;;4.00;;
2748;SDS011;1382;52.142;11.618;2023-05-10T05:52:30;5.13;;;3.60;;
2748;SDS011;1382;52.142;11.618;2023-05-10T05:54:56;10.00;;;4.13;;
2748;SDS011;1382;52.142;11.618;2023-05-10T05:57:23;6.47;;;4.10;;
2748;SDS011;1382;52.142;11.618;2023-05-10T05:59:50;5.50;;;3.60;;
2748;SDS011;1382;52.142;11.618;2023-05-10T06:02:18;5.80;;;3.80;;
2748;SDS011;1382;52.142;11.618;2023-05-10T06:04:44;9.30;;;4.30;;
2748;SDS011;1382;52.142;11.618;2023-05-10T06:07:11;7.67;;;4.00;;
2748;SDS011;1382;52.142;11.618;2023-05-10T06:09:38;8.73;;;4.30;;
2748;SDS011;1382;52.142;11.618;2023-05-10T06:12:05;5.37;;;3.80;;
2748;SDS011;1382;52.142;11.618;2023-05-10T06:14:31;4.57;;;3.83;;
2748;SDS011;1382;52.142;11.618;2023-05-10T06:16:58;4.63;;;4.23;;
2748;SDS011;1382;52.142;11.618;2023-05-10T06:19:26;5.20;;;3.70;;
2748;SDS011;1382;52.142;11.618;2023-05-10T06:21:53;9.27;;;3.73;;
2748;SDS011;1382;52.142;11.618;2023-05-10T06:24:19;5.40;;;4.20;;
2748;SDS011;1382;52.142;11.618;2023-05-10T06:26:46;6.73;;;4.93;;
2748;SDS011;1382;52.142;11.618;2023-05-10T06:29:13;5.60;;;4.30;;
2748;SDS011;1382;52.142;11.618;2023-05-10T06:31:39;4.20;;;3.80;;
2748;SDS011;1382;52.142;11.618;2023-05-10T06:34:06;4.20;;;3.77;;
2748;SDS011;1382;52.142;11.618;2023-05-10T06:36:34;7.80;;;4.07;;
2748;SDS011;1382;52.142;11.618;2023-05-10T06:39:01;4.30;;;3.27;;
2748;SDS011;1382;52.142;11.618;2023-05-10T06:41:28;4.17;;;3.63;;
2748;SDS011;1382;52.142;11.618;2023-05-10T06:43:55;5.37;;;4.10;;
2748;SDS011;1382;52.142;11.618;2023-05-10T06:46:21;5.10;;;3.80;;
2748;SDS011;1382;52.142;11.618;2023-05-10T06:48:48;5.30;;;4.17;;
2748;SDS011;1382;52.142;11.618;2023-05-10T06:51:15;4.43;;;4.03;;
2748;SDS011;1382;52.142;11.618;2023-05-10T06:53:43;4.57;;;4.00;;
2748;SDS011;1382;52.142;11.618;2023-05-10T06:56:09;7.83;;;5.17;;
2748;SDS011;1382;52.142;11.618;2023-05-10T06:58:36;5.40;;;4.20;;
2748;SDS011;1382;52.142;11.618;2023-05-10T07:01:03;6.70;;;3.97;;
2748;SDS011;1382;52.142;11.618;2023-05-10T07:03:31;6.90;;;3.77;;
2748;SDS011;1382;52.142;11.618;2023-05-10T07:06:01;5.53;;;4.97;;
2748;SDS011;1382;52.142;11.618;2023-05-10T07:08:28;5.10;;;4.60;;
2748;SDS011;1382;52.142;11.618;2023-05-10T07:11:00;7.30;;;4.40;;
2748;SDS011;1382;52.142;11.618;2023-05-10T07:13:27;5.93;;;4.60;;
2748;SDS011;1382;52.142;11.618;2023-05-10T07:15:54;6.47;;;5.30;;
2748;SDS011;1382;52.142;11.618;2023-05-10T07:18:20;4.50;;;4.10;;
2748;SDS011;1382;52.142;11.618;2023-05-10T07:20:47;9.53;;;3.87;;
2748;SDS011;1382;52.142;11.618;2023-05-10T07:23:14;6.47;;;4.30;;
2748;SDS011;1382;52.142;11.618;2023-05-10T07:25:40;6.50;;;5.37;;
2748;SDS011;1382;52.142;11.618;2023-05-10T07:28:08;6.27;;;4.47;;
2748;SDS011;1382;52.142;11.618;2023-05-10T07:30:35;9.87;;;4.70;;
2748;SDS011;1382;52.142;11.618;2023-05-10T07:33:02;4.80;;;4.30;;
2748;SDS011;1382;52.142;11.618;2023-05-10T07:35:29;5.90;;;4.30;;
2748;SDS011;1382;52.142;11.618;2023-05-10T07:37:55;5.23;;;4.13;;
2748;SDS011;1382;52.142;11.618;2023-05-10T07:40:22;7.73;;;4.13;;
2748;SDS011;1382;52.142;11.618;2023-05-10T07:42:49;6.67;;;4.30;;
2748;SDS011;1382;52.142;11.618;2023-05-10T07:45:17;5.63;;;4.57;;
2748;SDS011;1382;52.142;11.618;2023-05-10T07:47:44;5.30;;;4.80;;
2748;SDS011;1382;52.142;11.618;2023-05-10T07:50:11;5.20;;;4.30;;
2748;SDS011;1382;52.142;11.618;2023-05-10T07:52:37;5.90;;;4.47;;
2748;SDS011;1382;52.142;11.618;2023-05-10T07:55:04;6.50;;;4.77;;
2748;SDS011;1382;52.142;11.618;2023-05-10T07:57:32;5.40;;;4.50;;
2748;SDS011;1382;52.142;11.618;2023-05-10T07:59:59;10.80;;;4.90;;
2748;SDS011;1382;52.142;11.618;2023-05-10T08:02:27;9.07;;;4.37;;
2748;SDS011;1382;52.142;11.618;2023-05-10T08:04:53;5.53;;;4.17;;
2748;SDS011;1382;52.142;11.618;2023-05-10T08:07:20;5.03;;;4.53;;
2748;SDS011;1382;52.142;11.618;2023-05-10T08:09:47;12.50;;;4.67;;
2748;SDS011;1382;52.142;11.618;2023-05-10T08:12:14;9.33;;;4.90;;
2748;SDS011;1382;52.142;11.618;2023-05-10T08:14:40;8.17;;;4.47;;
2748;SDS011;1382;52.142;11.618;2023-05-10T08:17:07;8.20;;;5.20;;
2748;SDS011;1382;52.142;11.618;2023-05-10T08:19:35;8.40;;;4.20;;
2748;SDS011;1382;52.142;11.618;2023-05-10T08:22:02;6.33;;;4.67;;
2748;SDS011;1382;52.142;11.618;2023-05-10T08:24:28;9.57;;;4.70;;
2748;SDS011;1382;52.142;11.618;2023-05-10T08:26:56;4.50;;;4.10;;
2748;SDS011;1382;52.142;11.618;2023-05-10T08:29:23;7.50;;;5.00;;
2748;SDS011;1382;52.142;11.618;2023-05-10T08:31:51;6.97;;;5.80;;
2748;SDS011;1382;52.142;11.618;2023-05-10T08:34:18;5.70;;;4.50;;
2748;SDS011;1382;52.142;11.618;2023-05-10T08:36:46;5.87;;;4.83;;
2748;SDS011;1382;52.142;11.618;2023-05-10T08:39:13;6.23;;;5.23;;
2748;SDS011;1382;52.142;11.618;2023-05-10T08:41:55;12.27;;;6.00;;
2748;SDS011;1382;52.142;11.618;2023-05-10T08:44:27;9.47;;;6.17;;
2748;SDS011;1382;52.142;11.618;2023-05-10T08:46:54;7.47;;;5.40;;
2748;SDS011;1382;52.142;11.618;2023-05-10T08:49:22;8.40;;;5.33;;
2748;SDS011;1382;52.142;11.618;2023-05-10T08:51:52;10.07;;;5.17;;
2748;SDS011;1382;52.142;11.618;2023-05-10T08:54:21;5.63;;;5.10;;
2748;SDS011;1382;52.142;11.618;2023-05-10T08:56:48;9.07;;;5.97;;
2748;SDS011;1382;52.142;11.618;2023-05-10T08:59:15;11.20;;;5.77;;
2748;SDS011;1382;52.142;11.618;2023-05-10T09:01:42;7.83;;;5.40;;
2748;SDS011;1382;52.142;11.618;2023-05-10T09:04:10;10.00;;;5.90;;
2748;SDS011;1382;52.142;11.618;2023-05-10T09:06:37;8.83;;;5.90;;
2748;SDS011;1382;52.142;11.618;2023-05-10T09:09:05;7.50;;;5.80;;
2748;SDS011;1382;52.142;11.618;2023-05-10T09:11:32;6.17;;;5.20;;
2748;SDS011;1382;52.142;11.618;2023-05-10T09:14:00;5.83;;;5.33;;
2748;SDS011;1382;52.142;11.618;2023-05-10T09:16:27;6.37;;;5.00;;
2748;SDS011;1382;52.142;11.618;2023-05-10T09:18:54;12.43;;;6.00;;
2748;SDS011;1382;52.142;11.618;2023-05-10T09:21:21;9.40;;;5.30;;
2748;SDS011;1382;52.142;11.618;2023-05-10T09:23:47;9.93;;;5.47;;
2748;SDS011;1382;52.142;11.618;2023-05-10T09:26:15;7.90;;;6.17;;
2748;SDS011;1382;52.142;11.618;2023-05-10T09:28:52;7.60;;;5.80;;
2748;SDS011;1382;52.142;11.618;2023-05-10T09:31:20;10.20;;;6.57;;
2748;SDS011;1382;52.142;11.618;2023-05-10T09:33:47;8.97;;;5.93;;
2748;SDS011;1382;52.142;11.618;2023-05-10T09:36:15;8.50;;;6.30;;
2748;SDS011;1382;52.142;11.618;2023-05-10T09:38:45;6.57;;;5.97;;
2748;SDS011;1382;52.142;11.618;2023-05-10T09:41:16;9.73;;;6.17;;
2748;SDS011;1382;52.142;11.618;2023-05-10T09:43:43;9.53;;;5.00;;
2748;SDS011;1382;52.142;11.618;2023-05-10T09:46:10;13.73;;;6.20;;
2748;SDS011;1382;52.142;11.618;2023-05-10T09:48:39;6.70;;;5.27;;
2748;SDS011;1382;52.142;11.618;2023-05-10T09:51:08;8.23;;;5.97;;
2748;SDS011;1382;52.142;11.618;2023-05-10T09:53:35;8.10;;;5.90;;
2748;SDS011;1382;52.142;11.618;2023-05-10T09:56:02;10.30;;;6.00;;
2748;SDS011;1382;52.142;11.618;2023-05-10T09:58:30;5.43;;;4.93;;
2748;SDS011;1382;52.142;11.618;2023-05-10T10:00:57;8.10;;;6.40;;
2748;SDS011;1382;52.142;11.618;2023-05-10T10:03:24;7.83;;;6.47;;
2748;SDS011;1382;52.142;11.618;2023-05-10T10:05:50;5.53;;;5.03;;
2748;SDS011;1382;52.142;11.618;2023-05-10T10:08:17;9.53;;;6.20;;
2748;SDS011;1382;52.142;11.618;2023-05-10T10:10:44;9.27;;;6.90;;
2748;SDS011;1382;52.142;11.618;2023-05-10T10:13:11;10.13;;;6.30;;
2748;SDS011;1382;52.142;11.618;2023-05-10T10:15:39;9.13;;;6.80;;
2748;SDS011;1382;52.142;11.618;2023-05-10T10:18:08;15.03;;;6.97;;
2748;SDS011;1382;52.142;11.618;2023-05-10T10:20:39;9.70;;;6.33;;
2748;SDS011;1382;52.142;11.618;2023-05-10T10:23:07;9.10;;;6.83;;
2748;SDS011;1382;52.142;11.618;2023-05-10T10:25:34;10.13;;;5.97;;
2748;SDS011;1382;52.142;11.618;2023-05-10T10:28:05;6.80;;;6.10;;
2748;SDS011;1382;52.142;11.618;2023-05-10T10:30:42;6.40;;;5.80;;
2748;SDS011;1382;52.142;11.618;2023-05-10T10:36:05;6.70;;;6.10;;
2748;SDS011;1382;52.142;11.618;2023-05-10T10:41:27;7.47;;;6.60;;
2748;SDS011;1382;52.142;11.618;2023-05-10T10:47:00;7.30;;;6.20;;
2748;SDS011;1382;52.142;11.618;2023-05-10T10:49:31;8.73;;;7.67;;
2748;SDS011;1382;52.142;11.618;2023-05-10T10:52:15;8.13;;;6.80;;
2748;SDS011;1382;52.142;11.618;2023-05-10T10:54:49;11.83;;;8.20;;
2748;SDS011;1382;52.142;11.618;2023-05-10T10:57:17;6.67;;;6.00;;
2748;SDS011;1382;52.142;11.618;2023-05-10T10:59:46;10.27;;;7.67;;
2748;SDS011;1382;52.142;11.618;2023-05-10T11:08:02;12.10;;;7.90;;
2748;SDS011;1382;52.142;11.618;2023-05-10T11:10:34;12.77;;;7.90;;
2748;SDS011;1382;52.142;11.618;2023-05-10T11:13:01;9.30;;;7.83;;
2748;SDS011;1382;52.142;11.618;2023-05-10T11:15:28;8.93;;;7.30;;
2748;SDS011;1382;52.142;11.618;2023-05-10T11:17:56;8.67;;;7.87;;
2748;SDS011;1382;52.142;11.618;2023-05-10T11:20:23;8.20;;;7.00;;
2748;SDS011;1382;52.142;11.618;2023-05-10T11:22:53;8.80;;;7.37;;
2748;SDS011;1382;52.142;11.618;2023-05-10T11:25:25;8.20;;;7.40;;
2748;SDS011;1382;52.142;11.618;2023-05-10T11:27:52;10.53;;;7.60;;
2748;SDS011;1382;52.142;11.618;2023-05-10T11:30:19;10.33;;;8.80;;
2748;SDS011;1382;52.142;11.618;2023-05-10T11:32:48;9.17;;;8.07;;
2748;SDS011;1382;52.142;11.618;2023-05-10T11:35:19;9.33;;;7.90;;
2748;SDS011;1382;52.142;11.618;2023-05-10T11:37:47;11.33;;;9.27;;
2748;SDS011;1382;52.142;11.618;2023-05-10T11:40:14;8.67;;;7.80;;
2748;SDS011;1382;52.142;11.618;2023-05-10T11:42:41;9.37;;;8.37;;
2748;SDS011;1382;52.142;11.618;2023-05-10T11:45:09;10.57;;;8.00;;
2748;SDS011;1382;52.142;11.618;2023-05-10T11:47:36;11.10;;;9.17;;
2748;SDS011;1382;52.142;11.618;2023-05-10T11:50:03;13.00;;;8.60;;
2748;SDS011;1382;52.142;11.618;2023-05-10T11:52:36;7.80;;;7.00;;
2748;SDS011;1382;52.142;11.618;2023-05-10T11:55:03;9.47;;;8.47;;
2748;SDS011;1382;52.142;11.618;2023-05-10T11:57:30;9.70;;;8.70;;
2748;SDS011;1382;52.142;11.618;2023-05-10T11:59:57;12.17;;;9.20;;
2748;SDS011;1382;52.142;11.618;2023-05-10T12:02:24;9.70;;;8.70;;
2748;SDS011;1382;52.142;11.618;2023-05-10T12:04:51;10.40;;;9.30;;
2748;SDS011;1382;52.142;11.618;2023-05-10T12:07:18;10.23;;;9.17;;
2748;SDS011;1382;52.142;11.618;2023-05-10T12:10:01;11.13;;;7.40;;
2748;SDS011;1382;52.142;11.618;2023-05-10T12:12:34;8.70;;;7.50;;
2748;SDS011;1382;52.142;11.618;2023-05-10T12:15:03;11.83;;;7.17;;
2748;SDS011;1382;52.142;11.618;2023-05-10T12:17:31;10.57;;;9.50;;
2748;SDS011;1382;52.142;11.618;2023-05-10T12:19:58;12.70;;;9.87;;
2748;SDS011;1382;52.142;11.618;2023-05-10T12:22:38;10.00;;;7.80;;
2748;SDS011;1382;52.142;11.618;2023-05-10T12:25:07;9.10;;;8.20;;
2748;SDS011;1382;52.142;11.618;2023-05-10T12:27:34;12.47;;;9.80;;
2748;SDS011;1382;52.142;11.618;2023-05-10T12:30:01;13.10;;;7.20;;
2748;SDS011;1382;52.142;11.618;2023-05-10T12:32:38;11.03;;;10.03;;
2748;SDS011;1382;52.142;11.618;2023-05-10T12:35:06;7.93;;;7.23;;
2748;SDS011;1382;52.142;11.618;2023-05-10T12:37:33;9.63;;;8.63;;
2748;SDS011;1382;52.142;11.618;2023-05-10T12:40:00;9.67;;;8.63;;
2748;SDS011;1382;52.142;11.618;2023-05-10T12:42:28;11.00;;;8.40;;
2748;SDS011;1382;52.142;11.618;2023-05-10T12:44:55;14.87;;;11.13;;
2748;SDS011;1382;52.142;11.618;2023-05-10T12:47:22;11.93;;;10.73;;
2748;SDS011;1382;52.142;11.618;2023-05-10T12:49:48;12.00;;;10.07;;
2748;SDS011;1382;52.142;11.618;2023-05-10T12:52:15;10.70;;;9.33;;
2748;SDS011;1382;52.142;11.618;2023-05-10T12:54:42;9.20;;;7.73;;
2748;SDS011;1382;52.142;11.618;2023-05-10T12:57:08;9.27;;;8.00;;
2748;SDS011;1382;52.142;11.618;2023-05-10T12:59:36;13.00;;;9.07;;
2748;SDS011;1382;52.142;11.618;2023-05-10T13:02:03;9.20;;;8.33;;
2748;SDS011;1382;52.142;11.618;2023-05-10T13:04:30;23.80;;;8.80;;
2748;SDS011;1382;52.142;11.618;2023-05-10T13:06:57;12.30;;;11.10;;
2748;SDS011;1382;52.142;11.618;2023-05-10T13:09:23;13.60;;;12.13;;
2748;SDS011;1382;52.142;11.618;2023-05-10T13:11:50;8.57;;;6.80;;
2748;SDS011;1382;52.142;11.618;2023-05-10T13:14:17;4.30;;;3.90;;
2748;SDS011;1382;52.142;11.618;2023-05-10T13:16:45;4.43;;;4.03;;
2748;SDS011;1382;52.142;11.618;2023-05-10T13:19:12;5.13;;;4.63;;
2748;SDS011;1382;52.142;11.618;2023-05-10T13:21:39;4.97;;;4.37;;
2748;SDS011;1382;52.142;11.618;2023-05-10T13:24:06;4.83;;;4.33;;
2748;SDS011;1382;52.142;11.618;2023-05-10T13:26:33;4.67;;;4.03;;
2748;SDS011;1382;52.142;11.618;2023-05-10T13:29:00;4.60;;;4.20;;
2748;SDS011;1382;52.142;11.618;2023-05-10T13:31:26;6.13;;;4.77;;
2748;SDS011;1382;52.142;11.618;2023-05-10T13:33:55;6.60;;;5.00;;
2748;SDS011;1382;52.142;11.618;2023-05-10T13:36:21;6.53;;;5.23;;
2748;SDS011;1382;52.142;11.618;2023-05-10T13:38:48;4.47;;;4.07;;
2748;SDS011;1382;52.142;11.618;2023-05-10T13:41:15;6.00;;;5.17;;
2748;SDS011;1382;52.142;11.618;2023-05-10T13:43:41;5.80;;;5.20;;
2748;SDS011;1382;52.142;11.618;2023-05-10T13:46:08;6.70;;;6.10;;
2748;SDS011;1382;52.142;11.618;2023-05-10T13:48:35;9.10;;;5.43;;
2748;SDS011;1382;52.142;11.618;2023-05-10T13:51:05;7.00;;;6.30;;
2748;SDS011;1382;52.142;11.618;2023-05-10T13:53:32;7.53;;;6.83;;
2748;SDS011;1382;52.142;11.618;2023-05-10T13:55:58;7.17;;;6.50;;
2748;SDS011;1382;52.142;11.618;2023-05-10T13:58:25;6.87;;;6.20;;
2748;SDS011;1382;52.142;11.618;2023-05-10T14:00:52;6.17;;;5.57;;
2748;SDS011;1382;52.142;11.618;2023-05-10T14:03:18;5.30;;;4.90;;
2748;SDS011;1382;52.142;11.618;2023-05-10T14:05:45;5.67;;;5.13;;
2748;SDS011;1382;52.142;11.618;2023-05-10T14:08:13;6.23;;;5.73;;
2748;SDS011;1382;52.142;11.618;2023-05-10T14:10:40;5.47;;;4.77;;
2748;SDS011;1382;52.142;11.618;2023-05-10T14:13:07;4.30;;;3.90;;
2748;SDS011;1382;52.142;11.618;2023-05-10T14:15:33;3.70;;;3.40;;
2748;SDS011;1382;52.142;11.618;2023-05-10T14:18:00;4.73;;;4.33;;
2748;SDS011;1382;52.142;11.618;2023-05-10T14:20:27;3.27;;;3.07;;
2748;SDS011;1382;52.142;11.618;2023-05-10T14:22:53;4.40;;;3.90;;
2748;SDS011;1382;52.142;11.618;2023-05-10T14:25:21;4.17;;;3.80;;
2748;SDS011;1382;52.142;11.618;2023-05-10T14:27:49;4.30;;;3.90;;
2748;SDS011;1382;52.142;11.618;2023-05-10T14:30:16;4.33;;;3.93;;
2748;SDS011;1382;52.142;11.618;2023-05-10T14:32:42;3.10;;;2.90;;
2748;SDS011;1382;52.142;11.618;2023-05-10T14:35:09;3.80;;;3.50;;
2748;SDS011;1382;52.142;11.618;2023-05-10T14:37:38;3.50;;;3.20;;
2748;SDS011;1382;52.142;11.618;2023-05-10T14:40:07;3.77;;;3.47;;
2748;SDS011;1382;52.142;11.618;2023-05-10T14:42:35;3.77;;;2.83;;
2748;SDS011;1382;52.142;11.618;2023-05-10T14:45:02;2.30;;;2.10;;
2748;SDS011;1382;52.142;11.618;2023-05-10T14:47:30;2.40;;;2.20;;
2748;SDS011;1382;52.142;11.618;2023-05-10T14:49:56;3.17;;;2.73;;
2748;SDS011;1382;52.142;11.618;2023-05-10T14:52:23;4.23;;;3.57;;
2748;SDS011;1382;52.142;11.618;2023-05-10T14:54:50;3.80;;;3.50;;
2748;SDS011;1382;52.142;11.618;2023-05-10T14:57:16;4.00;;;3.60;;
2748;SDS011;1382;52.142;11.618;2023-05-10T14:59:44;4.60;;;4.20;;
2748;SDS011;1382;52.142;11.618;2023-05-10T15:02:11;3.97;;;3.60;;
2748;SDS011;1382;52.142;11.618;2023-05-10T15:04:39;4.40;;;4.00;;
2748;SDS011;1382;52.142;11.618;2023-05-10T15:07:06;3.20;;;3.00;;
2748;SDS011;1382;52.142;11.618;2023-05-10T15:09:32;4.23;;;3.93;;
2748;SDS011;1382;52.142;11.618;2023-05-10T15:11:59;3.43;;;3.17;;
2748;SDS011;1382;52.142;11.618;2023-05-10T15:14:26;4.73;;;4.40;;
2748;SDS011;1382;52.142;11.618;2023-05-10T15:16:54;4.80;;;4.40;;
2748;SDS011;1382;52.142;11.618;2023-05-10T15:19:20;4.50;;;4.10;;
2748;SDS011;1382;52.142;11.618;2023-05-10T15:21:47;5.80;;;5.30;;
2748;SDS011;1382;52.142;11.618;2023-05-10T15:24:14;6.27;;;5.70;;